createdAt,value
2018-10-17T00:01:34.721Z,11.54
2018-10-17T00:04:03.397Z,11.42
2018-10-17T00:06:32.075Z,11.35
2018-10-17T00:09:00.845Z,11.11
2018-10-17T00:11:29.496Z,10.85
2018-10-17T00:13:58.199Z,10.71
2018-10-17T00:16:26.827Z,10.65
2018-10-17T00:18:55.524Z,10.56
2018-10-17T00:21:24.185Z,10.48
2018-10-17T00:23:52.880Z,10.38
2018-10-17T00:26:21.571Z,10.34
2018-10-17T00:30:19.579Z,10.33
2018-10-17T00:32:48.300Z,10.24
2018-10-17T00:35:17.274Z,10.24
2018-10-17T00:37:45.941Z,10.19
2018-10-17T00:40:14.727Z,10.12
2018-10-17T00:42:43.429Z,10.14
2018-10-17T00:45:12.146Z,10.22
2018-10-17T00:47:41.386Z,10.18
2018-10-17T00:50:10.152Z,10.18
2018-10-17T00:52:38.832Z,10.20
2018-10-17T00:55:07.634Z,10.23
2018-10-17T00:57:36.288Z,10.22
2018-10-17T01:00:08.388Z,10.28
2018-10-17T01:02:37.165Z,10.22
2018-10-17T01:05:06.813Z,10.17
2018-10-17T01:07:35.466Z,10.22
2018-10-17T01:10:04.194Z,10.12
2018-10-17T01:12:32.904Z,10.05
2018-10-17T01:15:01.622Z,10.11
2018-10-17T01:17:30.321Z,10.07
2018-10-17T01:19:59.020Z,9.88
2018-10-17T01:22:27.665Z,9.90
2018-10-17T01:24:56.445Z,9.78
2018-10-17T01:27:25.070Z,9.81
2018-10-17T01:29:53.806Z,9.80
2018-10-17T01:32:22.561Z,9.68
2018-10-17T01:34:51.294Z,9.56
2018-10-17T01:37:19.976Z,9.52
2018-10-17T01:39:48.691Z,9.44
2018-10-17T01:42:17.405Z,9.33
2018-10-17T01:44:46.073Z,9.28
2018-10-17T01:47:14.977Z,9.29
2018-10-17T01:49:43.925Z,9.30
2018-10-17T01:52:12.671Z,9.40
2018-10-17T01:54:41.356Z,9.46
2018-10-17T01:57:10.025Z,9.42
2018-10-17T01:59:38.746Z,9.51
2018-10-17T02:02:07.463Z,9.36
2018-10-17T02:04:36.124Z,9.41
2018-10-17T02:07:04.937Z,9.44
2018-10-17T02:09:33.605Z,9.46
2018-10-17T02:12:02.273Z,9.39
2018-10-17T02:14:31.021Z,9.40
2018-10-17T02:16:59.729Z,9.37
2018-10-17T02:19:28.399Z,9.34
2018-10-17T02:21:57.152Z,9.46
2018-10-17T02:24:25.818Z,9.49
2018-10-17T02:26:54.537Z,9.52
2018-10-17T02:29:23.240Z,9.49
2018-10-17T02:31:51.923Z,9.52
2018-10-17T02:34:20.596Z,9.44
2018-10-17T02:36:49.325Z,9.38
2018-10-17T02:39:17.949Z,9.35
2018-10-17T02:41:46.599Z,9.25
2018-10-17T02:44:15.263Z,9.32
2018-10-17T02:46:43.980Z,9.36
2018-10-17T02:49:12.765Z,9.26
2018-10-17T02:51:41.412Z,9.40
2018-10-17T02:54:10.113Z,9.40
2018-10-17T02:56:38.818Z,9.44
2018-10-17T02:59:08.502Z,9.39
2018-10-17T03:01:37.198Z,9.36
2018-10-17T03:04:05.960Z,9.33
2018-10-17T03:06:34.659Z,9.22
2018-10-17T03:09:03.715Z,9.13
2018-10-17T03:11:32.466Z,9.05
2018-10-17T03:14:01.633Z,8.91
2018-10-17T03:16:30.308Z,8.80
2018-10-17T03:18:59.354Z,8.82
2018-10-17T03:21:27.967Z,8.78
2018-10-17T03:23:56.664Z,8.79
2018-10-17T03:26:25.403Z,8.76
2018-10-17T03:28:54.182Z,8.78
2018-10-17T03:31:22.905Z,8.73
2018-10-17T03:33:51.590Z,8.72
2018-10-17T03:36:20.294Z,8.69
2018-10-17T03:38:48.930Z,8.72
2018-10-17T03:41:17.617Z,8.63
2018-10-17T03:43:46.284Z,8.56
2018-10-17T03:46:21.143Z,8.52
2018-10-17T03:48:49.849Z,8.43
2018-10-17T03:51:18.684Z,8.45
2018-10-17T03:53:47.364Z,8.50
2018-10-17T03:56:15.978Z,8.52
2018-10-17T03:58:44.662Z,8.37
2018-10-17T04:01:13.469Z,8.48
2018-10-17T04:03:42.081Z,8.49
2018-10-17T04:06:10.768Z,8.43
2018-10-17T04:09:14.719Z,8.49
2018-10-17T04:11:43.437Z,8.52
2018-10-17T04:14:12.191Z,8.55
2018-10-17T04:16:40.982Z,8.60
2018-10-17T04:19:09.719Z,8.60
2018-10-17T04:21:38.338Z,8.54
2018-10-17T04:24:07.201Z,8.45
2018-10-17T04:26:35.971Z,8.41
2018-10-17T04:29:04.722Z,8.40
2018-10-17T04:31:33.497Z,8.45
2018-10-17T04:34:02.197Z,8.46
2018-10-17T04:36:30.884Z,8.55
2018-10-17T04:38:59.544Z,8.50
2018-10-17T04:41:28.211Z,8.58
2018-10-17T04:43:56.884Z,8.57
2018-10-17T04:46:25.581Z,8.55
2018-10-17T04:48:54.678Z,8.60
2018-10-17T04:51:23.390Z,8.62
2018-10-17T04:53:52.068Z,8.62
2018-10-17T04:56:20.823Z,8.66
2018-10-17T04:58:49.506Z,8.62
2018-10-17T05:01:18.247Z,8.65
2018-10-17T05:03:46.900Z,8.66
2018-10-17T05:06:16.691Z,8.61
2018-10-17T05:08:45.404Z,8.58
2018-10-17T05:11:14.324Z,8.57
2018-10-17T05:13:42.961Z,8.48
2018-10-17T05:16:11.636Z,8.49
2018-10-17T05:18:40.377Z,8.47
2018-10-17T05:21:09.113Z,8.42
2018-10-17T05:23:37.961Z,8.41
2018-10-17T05:26:06.905Z,8.29
2018-10-17T05:28:35.564Z,8.32
2018-10-17T05:31:04.375Z,8.31
2018-10-17T05:33:33.124Z,8.35
2018-10-17T05:36:01.840Z,8.30
2018-10-17T05:38:30.530Z,8.35
2018-10-17T05:40:59.247Z,8.41
2018-10-17T05:43:28.028Z,8.52
2018-10-17T05:45:56.749Z,8.51
2018-10-17T05:48:25.436Z,8.57
2018-10-17T05:50:55.179Z,8.53
2018-10-17T05:53:24.157Z,8.61
2018-10-17T05:55:52.905Z,8.61
2018-10-17T05:58:21.659Z,8.60
2018-10-17T06:00:50.348Z,8.65
2018-10-17T06:03:19.022Z,8.66
2018-10-17T06:05:47.735Z,8.70
2018-10-17T06:08:16.411Z,8.71
2018-10-17T06:10:45.138Z,8.80
2018-10-17T06:13:13.999Z,8.94
2018-10-17T06:15:42.687Z,9.03
2018-10-17T06:18:11.304Z,9.07
2018-10-17T06:20:40.160Z,9.10
2018-10-17T06:23:08.588Z,9.15
2018-10-17T06:25:37.267Z,9.28
2018-10-17T06:28:05.977Z,9.34
2018-10-17T06:30:34.845Z,9.47
2018-10-17T06:33:03.539Z,9.56
2018-10-17T06:35:32.275Z,9.65
2018-10-17T06:38:00.981Z,9.73
2018-10-17T06:40:29.619Z,9.73
2018-10-17T06:42:58.315Z,9.97
2018-10-17T06:45:27.027Z,10.04
2018-10-17T06:47:55.692Z,10.19
2018-10-17T06:50:24.369Z,10.28
2018-10-17T06:52:53.180Z,10.44
2018-10-17T06:55:21.984Z,10.60
2018-10-17T06:57:50.786Z,10.74
2018-10-17T07:00:23.762Z,10.81
2018-10-17T07:02:52.847Z,10.91
2018-10-17T07:05:21.855Z,11.03
2018-10-17T07:07:50.600Z,11.15
2018-10-17T07:10:19.481Z,11.27
2018-10-17T07:12:48.154Z,11.36
2018-10-17T07:15:16.880Z,11.44
2018-10-17T07:17:45.528Z,11.57
2018-10-17T07:20:14.217Z,11.66
2018-10-17T07:22:42.899Z,11.77
2018-10-17T07:25:11.690Z,11.93
2018-10-17T07:27:40.328Z,12.05
2018-10-17T07:30:10.056Z,12.18
2018-10-17T07:32:38.819Z,12.27
2018-10-17T07:35:08.699Z,12.35
2018-10-17T07:37:37.645Z,12.51
2018-10-17T07:40:07.234Z,12.61
2018-10-17T07:42:36.322Z,12.72
2018-10-17T07:45:05.470Z,12.85
2018-10-17T07:47:34.837Z,12.97
2018-10-17T07:50:03.765Z,13.06
2018-10-17T07:52:32.465Z,13.17
2018-10-17T07:55:06.246Z,13.25
2018-10-17T07:57:34.919Z,13.43
2018-10-17T08:00:07.544Z,13.46
2018-10-17T08:02:36.327Z,13.53
2018-10-17T08:05:05.101Z,13.65
2018-10-17T08:07:33.790Z,13.81
2018-10-17T08:10:02.541Z,13.90
2018-10-17T08:12:31.352Z,14.01
2018-10-17T08:15:00.949Z,14.09
2018-10-17T08:17:29.664Z,14.22
2018-10-17T08:19:58.445Z,14.33
2018-10-17T08:22:27.083Z,14.36
2018-10-17T08:24:55.921Z,14.57
2018-10-17T08:27:24.728Z,14.71
2018-10-17T08:29:53.415Z,14.80
2018-10-17T08:32:22.153Z,14.88
2018-10-17T08:34:50.885Z,15.02
2018-10-17T08:37:20.032Z,15.20
2018-10-17T08:39:48.387Z,15.29
2018-10-17T08:42:17.061Z,15.42
2018-10-17T08:44:45.806Z,15.50
2018-10-17T08:47:14.643Z,15.63
2018-10-17T08:49:43.461Z,15.66
2018-10-17T08:52:12.100Z,15.81
2018-10-17T08:54:40.840Z,15.99
2018-10-17T08:57:09.661Z,16.12
2018-10-17T09:04:27.901Z,16.33
2018-10-17T09:06:56.880Z,16.45
2018-10-17T09:09:25.656Z,16.60
2018-10-17T09:11:55.015Z,16.77
2018-10-17T09:15:09.113Z,16.92
2018-10-17T09:17:38.037Z,17.04
2018-10-17T09:20:08.322Z,17.17
2018-10-17T09:22:36.903Z,17.34
2018-10-17T09:25:06.025Z,17.54
2018-10-17T09:27:34.856Z,17.92
2018-10-17T09:30:07.178Z,18.43
2018-10-17T09:32:35.962Z,19.01
2018-10-17T09:35:06.177Z,19.64
2018-10-17T09:37:34.956Z,20.17
2018-10-17T09:40:03.856Z,20.82
2018-10-17T09:42:33.297Z,21.15
2018-10-17T09:45:02.211Z,21.61
2018-10-17T09:47:31.238Z,21.77
2018-10-17T09:50:00.148Z,22.16
2018-10-17T09:52:28.938Z,22.45
2018-10-17T09:54:57.759Z,22.68
2018-10-17T09:57:26.570Z,22.98
2018-10-17T09:59:55.492Z,23.26
2018-10-17T10:02:24.395Z,23.35
2018-10-17T10:04:53.154Z,23.56
2018-10-17T10:07:21.946Z,23.63
2018-10-17T10:09:50.680Z,23.47
2018-10-17T10:12:19.576Z,23.42
2018-10-17T10:14:48.426Z,23.50
2018-10-17T10:17:17.562Z,23.66
2018-10-17T10:19:46.346Z,24.05
2018-10-17T10:22:15.312Z,24.31
2018-10-17T10:24:44.223Z,24.26
2018-10-17T10:27:13.090Z,24.55
2018-10-17T10:29:41.997Z,24.75
2018-10-17T10:32:10.792Z,25.06
2018-10-17T10:34:39.633Z,24.90
2018-10-17T10:37:08.544Z,25.14
2018-10-17T10:39:37.361Z,25.09
2018-10-17T10:42:06.773Z,24.99
2018-10-17T10:44:35.570Z,25.27
2018-10-17T10:47:04.437Z,25.27
2018-10-17T10:49:33.287Z,25.32
2018-10-17T10:52:02.096Z,25.42
2018-10-17T10:54:30.904Z,25.52
2018-10-17T10:56:59.785Z,25.66
2018-10-17T10:59:28.645Z,25.74
2018-10-17T11:01:57.487Z,25.69
2018-10-17T11:04:26.306Z,25.48
2018-10-17T11:06:55.168Z,25.65
2018-10-17T11:09:28.635Z,25.94
2018-10-17T11:11:57.459Z,26.54
2018-10-17T11:14:26.473Z,26.76
2018-10-17T11:16:55.215Z,27.08
2018-10-17T11:19:24.009Z,27.21
2018-10-17T11:21:52.899Z,27.53
2018-10-17T11:24:21.701Z,27.49
2018-10-17T11:26:50.557Z,27.03
2018-10-17T11:29:19.487Z,27.74
2018-10-17T11:31:48.439Z,28.24
2018-10-17T11:34:18.554Z,28.12
2018-10-17T11:36:48.386Z,28.10
2018-10-17T11:39:17.329Z,28.16
2018-10-17T11:41:46.885Z,28.29
2018-10-17T11:44:17.245Z,28.21
2018-10-17T11:46:46.220Z,28.37
2018-10-17T11:49:15.002Z,28.44
2018-10-17T11:51:43.909Z,28.54
2018-10-17T11:54:12.805Z,29.08
2018-10-17T11:56:41.692Z,28.92
2018-10-17T11:59:10.599Z,29.11
2018-10-17T12:01:39.379Z,28.79
2018-10-17T12:04:08.521Z,28.78
2018-10-17T12:06:37.349Z,29.11
2018-10-17T12:09:08.094Z,29.05
2018-10-17T12:11:36.877Z,29.09
2018-10-17T12:14:05.936Z,29.03
2018-10-17T12:16:34.703Z,28.82
2018-10-17T12:19:04.120Z,28.92
2018-10-17T12:21:33.112Z,28.57
2018-10-17T12:24:02.036Z,28.65
2018-10-17T12:26:45.494Z,28.27
2018-10-17T12:29:14.318Z,28.41
2018-10-17T12:31:43.132Z,28.70
2018-10-17T12:34:12.015Z,28.64
2018-10-17T12:36:41.033Z,28.54
2018-10-17T12:39:11.942Z,28.30
2018-10-17T12:41:41.097Z,28.20
2018-10-17T12:44:09.769Z,28.63
2018-10-17T12:46:38.764Z,28.88
2018-10-17T12:49:07.632Z,28.80
2018-10-17T12:51:36.465Z,29.18
2018-10-17T12:54:05.596Z,29.15
2018-10-17T12:56:34.492Z,29.24
2018-10-17T12:59:03.479Z,29.47
2018-10-17T13:01:32.242Z,29.75
2018-10-17T13:04:01.090Z,29.80
2018-10-17T13:06:29.914Z,29.89
2018-10-17T13:08:58.726Z,29.55
2018-10-17T13:11:27.712Z,29.40
2018-10-17T13:13:56.574Z,29.53
2018-10-17T13:16:25.546Z,29.72
2018-10-17T13:18:54.404Z,29.66
2018-10-17T13:21:23.272Z,29.95
2018-10-17T13:23:52.138Z,29.59
2018-10-17T13:26:20.924Z,30.17
2018-10-17T13:28:49.953Z,30.05
2018-10-17T13:31:18.947Z,29.37
2018-10-17T13:33:47.837Z,29.14
2018-10-17T13:36:16.689Z,29.17
2018-10-17T13:38:45.703Z,29.05
2018-10-17T13:41:14.529Z,29.33
2018-10-17T13:43:43.266Z,29.26
2018-10-17T13:46:12.097Z,29.44
2018-10-17T13:48:40.962Z,28.70
2018-10-17T13:51:09.914Z,28.64
2018-10-17T13:53:38.751Z,28.70
2018-10-17T13:56:08.649Z,28.61
2018-10-17T13:58:37.534Z,28.87
2018-10-17T14:01:06.762Z,28.39
2018-10-17T14:03:35.511Z,28.28
2018-10-17T14:06:04.447Z,28.61
2018-10-17T14:08:33.684Z,28.60
2018-10-17T14:11:02.488Z,28.59
2018-10-17T14:13:31.404Z,28.62
2018-10-17T14:16:00.182Z,28.74
2018-10-17T14:18:29.507Z,28.51
2018-10-17T14:20:58.361Z,28.60
2018-10-17T14:23:27.225Z,28.34
2018-10-17T14:25:55.882Z,28.18
2018-10-17T14:28:24.579Z,28.22
2018-10-17T14:30:53.269Z,28.32
2018-10-17T14:33:22.037Z,28.24
2018-10-17T14:35:50.739Z,27.98
2018-10-17T14:38:19.501Z,28.01
2018-10-17T14:40:48.354Z,28.07
2018-10-17T14:43:17.510Z,27.95
2018-10-17T14:45:46.323Z,27.60
2018-10-17T14:48:15.065Z,27.61
2018-10-17T14:50:43.715Z,27.20
2018-10-17T14:53:12.520Z,26.72
2018-10-17T14:55:41.174Z,26.73
2018-10-17T14:58:09.842Z,26.88
2018-10-17T15:00:38.602Z,26.78
2018-10-17T15:03:07.359Z,26.56
2018-10-17T15:05:36.106Z,26.38
2018-10-17T15:08:04.957Z,25.94
2018-10-17T15:10:33.748Z,25.74
2018-10-17T15:13:02.385Z,25.34
2018-10-17T15:15:31.224Z,25.11
2018-10-17T15:18:00.256Z,24.69
2018-10-17T15:20:29.603Z,24.29
2018-10-17T15:22:58.330Z,24.17
2018-10-17T15:25:27.041Z,23.93
2018-10-17T15:27:55.813Z,23.59
2018-10-17T15:30:24.555Z,23.37
2018-10-17T15:32:53.310Z,23.09
2018-10-17T15:35:22.027Z,22.75
2018-10-17T15:37:50.834Z,22.49
2018-10-17T15:40:19.590Z,22.32
2018-10-17T15:42:48.349Z,22.17
2018-10-17T15:45:17.107Z,21.98
2018-10-17T15:47:45.953Z,21.92
2018-10-17T15:50:14.713Z,21.73
2018-10-17T15:52:44.302Z,21.58
2018-10-17T15:55:13.155Z,21.54
2018-10-17T15:57:41.976Z,21.37
2018-10-17T16:00:11.692Z,21.23
2018-10-17T16:02:40.471Z,21.16
2018-10-17T16:05:10.892Z,21.03
2018-10-17T16:07:39.665Z,21.04
2018-10-17T16:10:08.680Z,20.93
2018-10-17T16:12:37.967Z,20.96
2018-10-17T16:15:07.930Z,20.90
2018-10-17T16:17:36.671Z,20.78
2018-10-17T16:20:06.748Z,20.73
2018-10-17T16:22:35.507Z,20.58
2018-10-17T16:25:04.444Z,20.52
2018-10-17T16:27:34.108Z,20.49
2018-10-17T16:30:06.530Z,20.41
2018-10-17T16:32:35.243Z,20.39
2018-10-17T16:35:04.043Z,20.30
2018-10-17T16:37:32.824Z,20.22
2018-10-17T16:40:01.588Z,20.20
2018-10-17T16:42:30.314Z,20.20
2018-10-17T16:44:59.029Z,20.16
2018-10-17T16:47:28.048Z,20.17
2018-10-17T16:49:56.722Z,20.17
2018-10-17T16:52:25.413Z,20.06
2018-10-17T16:54:54.071Z,20.09
2018-10-17T16:57:22.745Z,20.07
2018-10-17T16:59:51.489Z,19.97
2018-10-17T17:02:20.226Z,19.87
2018-10-17T17:04:48.904Z,19.79
2018-10-17T17:07:17.580Z,19.77
2018-10-17T17:09:46.440Z,19.77
2018-10-17T17:12:15.178Z,19.80
2018-10-17T17:14:43.978Z,19.81
2018-10-17T17:17:12.815Z,19.71
2018-10-17T17:19:41.548Z,19.71
2018-10-17T17:22:10.254Z,19.57
2018-10-17T17:24:58.063Z,19.53
2018-10-17T17:27:26.842Z,19.53
2018-10-17T17:29:55.614Z,19.52
2018-10-17T17:32:24.227Z,19.45
2018-10-17T17:34:52.952Z,19.47
2018-10-17T17:37:21.623Z,19.33
2018-10-17T17:39:50.383Z,19.21
2018-10-17T17:42:19.251Z,19.13
2018-10-17T17:44:47.920Z,19.05
2018-10-17T17:47:16.645Z,19.05
2018-10-17T17:49:45.326Z,19.06
2018-10-17T17:52:14.038Z,18.99
2018-10-17T17:54:43.616Z,18.97
2018-10-17T17:57:12.362Z,18.90
2018-10-17T17:59:41.196Z,18.86
2018-10-17T18:02:09.985Z,18.84
2018-10-17T18:04:38.726Z,18.78
2018-10-17T18:07:07.521Z,18.69
2018-10-17T18:09:36.298Z,18.60
2018-10-17T18:12:05.437Z,18.56
2018-10-17T18:14:34.130Z,18.54
2018-10-17T18:17:02.984Z,18.50
2018-10-17T18:19:31.779Z,18.45
2018-10-17T18:22:00.565Z,18.34
2018-10-17T18:24:29.313Z,18.19
2018-10-17T18:26:57.995Z,18.10
2018-10-17T18:29:26.857Z,18.07
2018-10-17T18:31:55.659Z,17.96
2018-10-17T18:34:24.352Z,17.92
2018-10-17T18:36:53.288Z,17.97
2018-10-17T18:39:21.972Z,17.89
2018-10-17T18:41:50.604Z,17.84
2018-10-17T18:44:19.291Z,17.93
2018-10-17T18:46:47.954Z,17.87
2018-10-17T18:49:16.706Z,17.86
2018-10-17T18:51:45.377Z,17.88
2018-10-17T18:54:14.101Z,17.71
2018-10-17T18:56:42.729Z,17.68
2018-10-17T18:59:11.980Z,17.72
2018-10-17T19:01:40.735Z,17.70
2018-10-17T19:04:09.344Z,17.65
2018-10-17T19:06:38.056Z,17.69
2018-10-17T19:09:10.232Z,17.59
2018-10-17T19:11:38.900Z,17.54
2018-10-17T19:14:08.020Z,17.58
2018-10-17T19:16:37.318Z,17.61
2018-10-17T19:19:08.086Z,17.56
2018-10-17T19:21:37.121Z,17.59
2018-10-17T19:24:06.416Z,17.65
2018-10-17T19:26:35.102Z,17.71
2018-10-17T19:29:03.801Z,17.67
2018-10-17T19:31:32.492Z,17.73
2018-10-17T19:34:01.227Z,17.76
2018-10-17T19:36:30.019Z,17.78
2018-10-17T19:38:58.751Z,17.71
2018-10-17T19:41:27.371Z,17.75
2018-10-17T19:43:56.176Z,17.69
2018-10-17T19:46:24.846Z,17.69
2018-10-17T19:48:53.524Z,17.74
2018-10-17T19:51:22.273Z,17.72
2018-10-17T19:53:51.401Z,17.74
2018-10-17T19:56:20.053Z,17.73
2018-10-17T19:58:48.759Z,17.68
2018-10-17T20:01:18.094Z,17.59
2018-10-17T20:03:46.720Z,17.57
2018-10-17T20:06:16.551Z,17.45
2018-10-17T20:08:45.226Z,17.47
2018-10-17T20:11:13.965Z,17.52
2018-10-17T20:13:42.683Z,17.50
2018-10-17T20:16:11.458Z,17.46
2018-10-17T20:18:40.117Z,17.35
2018-10-17T20:21:08.921Z,17.39
2018-10-17T20:23:37.581Z,17.32
2018-10-17T20:26:06.454Z,17.35
2018-10-17T20:28:35.359Z,17.27
2018-10-17T20:31:04.069Z,17.24
2018-10-17T20:33:32.734Z,17.21
2018-10-17T20:36:01.481Z,17.14
2018-10-17T20:38:30.202Z,17.13
2018-10-17T20:40:58.940Z,17.19
2018-10-17T20:43:28.050Z,17.13
2018-10-17T20:45:56.706Z,17.21
2018-10-17T20:48:25.449Z,17.24
2018-10-17T20:50:54.302Z,17.24
2018-10-17T20:53:23.000Z,17.30
2018-10-17T20:55:51.812Z,17.32
2018-10-17T20:58:20.526Z,17.35
2018-10-17T21:00:49.329Z,17.38
2018-10-17T21:03:18.024Z,17.39
2018-10-17T21:05:46.693Z,17.38
2018-10-17T21:08:15.525Z,17.37
2018-10-17T21:10:44.134Z,17.34
2018-10-17T21:13:12.838Z,17.32
2018-10-17T21:15:41.662Z,17.37
2018-10-17T21:18:10.469Z,17.26
2018-10-17T21:20:39.203Z,17.34
2018-10-17T21:23:07.864Z,17.25
2018-10-17T21:25:36.525Z,17.27
2018-10-17T21:28:05.469Z,17.27
2018-10-17T21:30:34.191Z,17.24
2018-10-17T21:33:02.785Z,17.21
2018-10-17T21:35:31.618Z,17.22
2018-10-17T21:38:00.294Z,17.24
2018-10-17T21:40:28.979Z,17.27
2018-10-17T21:42:57.698Z,17.26
2018-10-17T21:45:26.478Z,17.27
2018-10-17T21:47:55.249Z,17.22
2018-10-17T21:50:23.947Z,17.21
2018-10-17T21:52:52.631Z,17.23
2018-10-17T21:55:21.275Z,17.23
2018-10-17T21:57:50.004Z,17.20
2018-10-17T22:00:18.784Z,17.20
2018-10-17T22:02:47.492Z,17.22
2018-10-17T22:05:16.159Z,17.16
2018-10-17T22:07:44.885Z,17.18
2018-10-17T22:10:13.553Z,17.12
2018-10-17T22:12:42.206Z,17.02
2018-10-17T22:15:11.466Z,16.91
2018-10-17T22:17:40.103Z,16.92
2018-10-17T22:20:08.783Z,16.85
2018-10-17T22:22:37.444Z,16.77
2018-10-17T22:25:07.804Z,16.59
2018-10-17T22:27:36.488Z,16.49
2018-10-17T22:30:08.937Z,16.43
2018-10-17T22:32:37.567Z,16.24
2018-10-17T22:35:06.605Z,16.22
2018-10-17T22:37:35.369Z,16.16
2018-10-17T22:40:04.076Z,16.02
2018-10-17T22:42:33.706Z,15.94
2018-10-17T22:45:02.407Z,15.87
2018-10-17T22:47:31.071Z,15.82
2018-10-17T22:49:59.834Z,15.76
2018-10-17T22:52:28.509Z,15.73
2018-10-17T22:54:57.195Z,15.70
2018-10-17T22:57:25.834Z,15.65
2018-10-17T22:59:54.497Z,15.63
2018-10-17T23:02:23.085Z,15.54
2018-10-17T23:04:51.802Z,15.54
2018-10-17T23:07:20.543Z,15.48
2018-10-17T23:09:49.184Z,15.51
2018-10-17T23:12:17.861Z,15.46
2018-10-17T23:14:46.515Z,15.48
2018-10-17T23:17:15.188Z,15.45
2018-10-17T23:19:43.813Z,15.47
2018-10-17T23:22:12.423Z,15.48
2018-10-17T23:24:41.104Z,15.50
2018-10-17T23:27:09.756Z,15.48
2018-10-17T23:29:38.419Z,15.46
2018-10-17T23:32:07.184Z,15.45
2018-10-17T23:34:35.801Z,15.41
2018-10-17T23:37:04.486Z,15.48
2018-10-17T23:39:33.051Z,15.49
2018-10-17T23:42:01.788Z,15.46
2018-10-17T23:44:30.444Z,15.44
2018-10-17T23:53:45.543Z,15.32
2018-10-17T23:56:14.268Z,15.33
2018-10-17T23:58:42.904Z,15.36
